KCEC/CEC METAR and TAF weather

Enter ICAO airport designator
Station Type Date Time Source
KCEC METAR 2021/01/17 18:56 UTC NOAA

KCEC 171856Z AUTO 01010KT 7SM CLR 15/07 A3030 RMK AO2 SLP261 T01500072


Station Type Date Time Source
KCEC Decoded METAR 2021/01/17 18:56 UTC NOAA

CRESCENT CITY MC NAMARA, CA, United States (KCEC) 41-47N 124-14W
Jan 17, 2021 - 01:56 PM EST / 2021.01.17 1856 UTC
Wind: from the N (010 degrees) at 12 MPH (10 KT):0
Visibility: 7 mile(s):0
Sky conditions: clear
Temperature: 59.0 F (15.0 C)
Dew Point: 45.0 F (7.2 C)
Relative Humidity: 59%
Pressure (altimeter): 30.3 in. Hg (1026 hPa)
ob: KCEC 171856Z AUTO 01010KT 7SM CLR 15/07 A3030 RMK AO2 SLP261 T01500072
cycle: 19

Station Type Date Time Source
KCEC TAF 2021/01/17 18:33 UTC NOAA

TAF KCEC 171731Z 1718/1818 36008KT P6SM SCT200
FM172100 34015G25KT P6SM FEW150 BKN200
FM180300 35010G20KT P6SM SCT150 BKN200
FM180700 02008KT P6SM FEW200 WS015/05035KT
FM181500 03010G20KT P6SM FEW200

Example: see airport list